Time;durP1;ratioP1;P1;durP2;ratioP2;P2;SDS_P1;SDS_P2;PMS_P1;PMS_P2;Temp;Humidity;BMP_temperature;BMP_pressure;BME280_temperature;BME280_humidity;BME280_pressure;Samples;Min_cycle;Max_cycle;Signal;HPM_P1;HPM_P2
2022/05/19 00:02:26;;;;;;;46.33;31.17;;;14.30;99.90;;;;;;7390653;19;20357;-65
2022/05/19 00:04:56;;;;;;;45.08;31.20;;;14.20;99.90;;;;;;7395688;19;20010;-65
2022/05/19 00:07:27;;;;;;;43.83;30.38;;;14.40;99.90;;;;;;7393185;19;20014;-65
2022/05/19 00:09:56;;;;;;;46.22;30.75;;;14.20;99.90;;;;;;7393838;19;20019;-64
2022/05/19 00:12:25;;;;;;;48.70;32.00;;;14.20;99.90;;;;;;7393447;19;20014;-65
2022/05/19 00:14:54;;;;;;;53.30;34.08;;;14.10;99.90;;;;;;7395230;19;20074;-65
2022/05/19 00:17:23;;;;;;;45.80;31.98;;;14.10;99.90;;;;;;7397000;19;20038;-64
2022/05/19 00:19:52;;;;;;;48.17;33.67;;;13.90;99.90;;;;;;7397597;19;20039;-65
2022/05/19 00:22:21;;;;;;;51.08;31.83;;;14.00;99.90;;;;;;7398297;19;20017;-65
2022/05/19 00:24:52;;;;;;;51.28;32.75;;;14.10;99.90;;;;;;7401768;19;20035;-64
2022/05/19 00:27:21;;;;;;;49.13;33.20;;;13.90;99.90;;;;;;7402131;19;20010;-64
2022/05/19 00:29:50;;;;;;;49.55;33.42;;;14.00;99.90;;;;;;7400647;19;20018;-65
2022/05/19 00:32:19;;;;;;;54.70;34.38;;;13.90;99.90;;;;;;7401500;19;20030;-64
2022/05/19 00:34:48;;;;;;;48.08;33.78;;;13.90;99.90;;;;;;7401995;19;20019;-64
2022/05/19 00:37:17;;;;;;;49.78;34.05;;;13.70;99.90;;;;;;7400029;19;20078;-64
2022/05/19 00:39:46;;;;;;;51.20;34.10;;;13.90;99.90;;;;;;7400074;19;20062;-65
2022/05/19 00:45:02;;;;;;;52.72;34.08;;;13.70;99.90;;;;;;7402240;19;20018;-64
2022/05/19 00:47:37;;;;;;;48.03;33.70;;;13.90;99.90;;;;;;7402519;19;20014;-65
2022/05/19 00:50:08;;;;;;;52.28;34.90;;;13.90;99.90;;;;;;7401827;19;20481;-64
2022/05/19 00:52:41;;;;;;;50.95;33.83;;;13.90;99.90;;;;;;7404803;19;20015;-64
2022/05/19 00:55:14;;;;;;;51.42;34.72;;;13.80;99.90;;;;;;7401806;19;20014;-65
2022/05/19 00:57:51;;;;;;;46.30;33.33;;;13.80;99.90;;;;;;7401635;19;20479;-64
2022/05/19 01:00:22;;;;;;;52.53;34.65;;;13.60;99.90;;;;;;7398609;19;20544;-64
2022/05/19 01:02:54;;;;;;;54.63;34.45;;;13.70;99.90;;;;;;7399408;19;20094;-64
2022/05/19 01:05:29;;;;;;;52.10;35.30;;;15.50;99.90;;;;;;7400572;19;20014;-64
2022/05/19 01:08:02;;;;;;;51.78;34.85;;;13.90;99.90;;;;;;7402131;19;20311;-64
2022/05/19 01:10:31;;;;;;;50.22;35.38;;;13.90;99.90;;;;;;7398298;19;20015;-65
2022/05/19 01:13:03;;;;;;;50.70;34.90;;;13.80;99.90;;;;;;7399219;19;20011;-65
2022/05/19 01:15:36;;;;;;;50.60;33.17;;;13.70;99.90;;;;;;7400643;19;20046;-64
2022/05/19 01:18:05;;;;;;;49.47;34.95;;;13.80;99.90;;;;;;7399567;19;20031;-65
2022/05/19 01:20:34;;;;;;;52.17;33.55;;;13.50;99.90;;;;;;7398624;19;20078;-64
2022/05/19 01:23:12;;;;;;;56.60;35.25;;;13.70;99.90;;;;;;7401904;19;20360;-64
2022/05/19 01:25:50;;;;;;;51.90;36.00;;;13.70;99.90;;;;;;7395948;19;20031;-64
2022/05/19 01:28:21;;;;;;;51.78;34.50;;;13.70;99.90;;;;;;7397883;19;20010;-64
2022/05/19 01:30:50;;;;;;;53.55;36.20;;;13.50;99.90;;;;;;7398910;19;20018;-64
2022/05/19 01:33:19;;;;;;;49.90;34.92;;;13.50;99.90;;;;;;7399449;19;20111;-64
2022/05/19 01:35:48;;;;;;;51.22;35.17;;;13.60;99.90;;;;;;7398173;19;20090;-65
2022/05/19 01:38:20;;;;;;;50.53;34.17;;;13.40;99.90;;;;;;7399890;19;20018;-65
2022/05/19 01:41:04;;;;;;;50.17;34.70;;;13.60;99.90;;;;;;7399673;19;20010;-65
2022/05/19 01:43:42;;;;;;;54.75;35.53;;;13.50;99.90;;;;;;7398576;19;20006;-65
2022/05/19 01:46:20;;;;;;;50.28;34.95;;;13.50;99.90;;;;;;7396205;19;20417;-64
2022/05/19 01:48:53;;;;;;;51.97;34.08;;;13.30;99.90;;;;;;7396310;19;20021;-64
2022/05/19 01:51:30;;;;;;;51.30;34.08;;;13.30;99.90;;;;;;7400242;19;20015;-64
2022/05/19 01:54:08;;;;;;;46.25;33.00;;;13.40;99.90;;;;;;7399970;19;20019;-64
2022/05/19 01:56:43;;;;;;;47.88;33.10;;;13.20;99.90;;;;;;7396906;19;20086;-64
2022/05/19 01:59:22;;;;;;;45.70;33.33;;;13.20;99.90;;;;;;7399337;19;20345;-65
2022/05/19 02:01:59;;;;;;;47.72;33.60;;;13.30;99.90;;;;;;7398195;19;20015;-64
2022/05/19 02:04:33;;;;;;;49.10;34.28;;;13.20;99.90;;;;;;7397280;19;20022;-64
2022/05/19 02:07:07;;;;;;;50.30;35.15;;;13.20;99.90;;;;;;7399539;19;20014;-65
2022/05/19 02:09:40;;;;;;;48.65;35.03;;;13.10;99.90;;;;;;7399012;19;20010;-64
2022/05/19 02:12:10;;;;;;;53.53;36.33;;;13.20;99.90;;;;;;7397448;19;20017;-65
2022/05/19 02:14:45;;;;;;;55.67;36.72;;;13.10;99.90;;;;;;7394183;19;20010;-64
2022/05/19 02:17:19;;;;;;;51.20;35.40;;;13.20;99.90;;;;;;7397085;19;20009;-64
2022/05/19 02:19:53;;;;;;;54.38;36.15;;;13.10;99.90;;;;;;7398452;19;20010;-64
2022/05/19 02:22:26;;;;;;;51.28;34.08;;;13.10;99.90;;;;;;7394381;19;20028;-64
2022/05/19 02:25:00;;;;;;;53.15;37.78;;;13.10;99.90;;;;;;7397175;19;20355;-65
2022/05/19 02:27:35;;;;;;;52.17;37.70;;;13.00;99.90;;;;;;7395972;19;20014;-64
2022/05/19 02:30:11;;;;;;;57.88;38.15;;;13.00;99.90;;;;;;7398540;19;20345;-64
2022/05/19 02:32:40;;;;;;;57.40;39.75;;;13.10;99.90;;;;;;7397287;19;20021;-64
2022/05/19 02:35:10;;;;;;;60.38;40.28;;;12.90;99.90;;;;;;7396635;19;20015;-64
2022/05/19 02:37:39;;;;;;;58.80;40.83;;;12.90;99.90;;;;;;7396155;19;20034;-64
2022/05/19 02:40:10;;;;;;;59.42;41.20;;;12.90;99.90;;;;;;7396245;19;20011;-64
2022/05/19 02:42:40;;;;;;;57.63;39.95;;;12.90;99.90;;;;;;7391483;19;20078;-64
2022/05/19 02:45:13;;;;;;;58.78;38.28;;;12.80;99.90;;;;;;7396258;19;20010;-64
2022/05/19 02:47:43;;;;;;;61.75;40.17;;;12.80;99.90;;;;;;7395625;19;20484;-64
2022/05/19 02:50:14;;;;;;;56.47;38.65;;;12.80;99.90;;;;;;7400167;19;20011;-65
2022/05/19 02:52:43;;;;;;;58.13;39.42;;;12.80;99.90;;;;;;7397144;19;20018;-65
2022/05/19 02:55:13;;;;;;;63.85;41.55;;;12.90;99.90;;;;;;7395922;19;20090;-64
2022/05/19 02:57:42;;;;;;;60.03;42.13;;;12.80;99.90;;;;;;7395056;19;20010;-64
2022/05/19 03:00:18;;;;;;;60.33;41.35;;;12.70;99.90;;;;;;7393289;19;20019;-64
2022/05/19 03:02:52;;;;;;;63.25;41.55;;;12.80;99.90;;;;;;7397551;19;20042;-64
2022/05/19 03:05:23;;;;;;;63.00;42.25;;;12.70;99.90;;;;;;7393807;19;20022;-64
2022/05/19 03:07:53;;;;;;;63.10;42.95;;;12.60;99.90;;;;;;7395505;19;20010;-64
2022/05/19 03:10:23;;;;;;;66.70;45.95;;;12.60;99.90;;;;;;7394841;19;20027;-64
2022/05/19 03:12:52;;;;;;;74.68;45.30;;;12.90;99.90;;;;;;7394906;19;20053;-64
2022/05/19 03:15:24;;;;;;;71.47;46.22;;;12.70;99.90;;;;;;7395375;19;20024;-64
2022/05/19 03:17:53;;;;;;;69.25;45.35;;;12.60;99.90;;;;;;7394916;19;20014;-64
2022/05/19 03:20:22;;;;;;;69.88;45.97;;;12.70;99.90;;;;;;7394102;19;20052;-64
2022/05/19 03:22:51;;;;;;;66.20;44.63;;;12.60;99.90;;;;;;7396681;19;20018;-64
2022/05/19 03:25:20;;;;;;;68.25;44.90;;;12.70;99.90;;;;;;7396232;19;20025;-64
2022/05/19 03:27:49;;;;;;;65.47;44.55;;;12.50;99.90;;;;;;7394800;19;20046;-64
2022/05/19 03:30:19;;;;;;;70.28;45.90;;;12.50;99.90;;;;;;7392550;19;20018;-64
2022/05/19 03:32:51;;;;;;;72.15;46.08;;;12.70;99.90;;;;;;7392086;19;20620;-64
2022/05/19 03:35:20;;;;;;;63.90;44.08;;;12.70;99.90;;;;;;7393420;19;20021;-64
2022/05/19 03:37:49;;;;;;;70.72;45.75;;;12.50;99.90;;;;;;7397230;19;20022;-64
2022/05/19 03:40:19;;;;;;;70.00;45.13;;;12.60;99.90;;;;;;7396824;19;20477;-64
2022/05/19 03:42:48;;;;;;;66.75;45.80;;;12.70;99.90;;;;;;7391644;19;20355;-64
2022/05/19 03:45:17;;;;;;;69.50;45.80;;;12.70;99.90;;;;;;7395280;19;20046;-64
2022/05/19 03:47:46;;;;;;;65.55;43.45;;;12.40;99.90;;;;;;7394498;19;20022;-64
2022/05/19 03:50:17;;;;;;;67.82;45.05;;;12.50;99.90;;;;;;7393626;19;20074;-64
2022/05/19 03:52:47;;;;;;;64.57;44.92;;;12.40;99.90;;;;;;7396941;19;20372;-64
2022/05/19 03:55:17;;;;;;;66.57;44.05;;;12.50;99.90;;;;;;7392770;19;20010;-64
2022/05/19 03:57:46;;;;;;;64.75;44.05;;;12.50;99.90;;;;;;7396081;19;20014;-64
2022/05/19 04:00:16;;;;;;;65.85;43.72;;;12.50;99.90;;;;;;7391485;19;20015;-64
2022/05/19 04:02:45;;;;;;;63.63;43.30;;;12.60;99.90;;;;;;7391833;19;20011;-64
2022/05/19 04:05:20;;;;;;;64.68;43.35;;;12.60;99.90;;;;;;7393731;19;20048;-64
2022/05/19 04:07:49;;;;;;;68.80;43.22;;;12.60;99.90;;;;;;7393743;19;20031;-64
2022/05/19 04:10:19;;;;;;;65.90;43.25;;;12.60;99.90;;;;;;7396960;19;20011;-64
2022/05/19 04:12:48;;;;;;;63.63;43.45;;;12.60;99.90;;;;;;7392649;19;20480;-64
2022/05/19 04:15:17;;;;;;;64.60;43.05;;;12.60;99.90;;;;;;7393799;19;20010;-65
2022/05/19 04:17:45;;;;;;;67.47;44.30;;;12.60;99.90;;;;;;7393408;19;20489;-65
2022/05/19 04:20:15;;;;;;;67.22;43.92;;;12.70;99.90;;;;;;7392334;19;20014;-65
2022/05/19 04:22:46;;;;;;;65.10;43.42;;;12.70;99.90;;;;;;7395324;19;20029;-64
2022/05/19 04:25:16;;;;;;;64.72;43.95;;;12.70;99.90;;;;;;7391968;19;20023;-64
2022/05/19 04:27:45;;;;;;;63.47;42.20;;;12.80;99.90;;;;;;7392480;19;20402;-64
2022/05/19 04:30:14;;;;;;;65.22;44.42;;;12.80;99.90;;;;;;7393113;19;20022;-66
2022/05/19 04:32:43;;;;;;;63.22;42.70;;;12.70;99.90;;;;;;7396801;19;20014;-64
2022/05/19 04:35:13;;;;;;;62.40;42.13;;;12.60;99.90;;;;;;7392654;19;20036;-64
2022/05/19 04:37:42;;;;;;;65.78;44.72;;;12.70;99.90;;;;;;7391683;19;20473;-64
2022/05/19 04:40:15;;;;;;;62.03;42.10;;;12.60;99.90;;;;;;7394501;19;20019;-64
2022/05/19 04:42:44;;;;;;;66.68;43.83;;;12.80;99.90;;;;;;7390907;19;20038;-64
2022/05/19 04:45:16;;;;;;;63.10;42.45;;;12.70;99.90;;;;;;7392879;19;20018;-65
2022/05/19 04:47:45;;;;;;;63.78;42.30;;;12.70;99.90;;;;;;7392185;19;20018;-64
2022/05/19 04:50:16;;;;;;;60.03;42.50;;;12.80;99.90;;;;;;7394452;19;20006;-64
2022/05/19 04:52:45;;;;;;;62.40;41.75;;;12.70;99.90;;;;;;7391072;19;20017;-64
2022/05/19 04:55:16;;;;;;;67.75;42.88;;;12.70;99.90;;;;;;7393090;19;20021;-64
2022/05/19 04:57:47;;;;;;;59.80;41.00;;;12.60;99.90;;;;;;7392124;19;20031;-64
2022/05/19 05:00:18;;;;;;;59.78;41.50;;;12.80;99.90;;;;;;7390233;19;20486;-64
2022/05/19 05:02:46;;;;;;;61.38;41.70;;;12.90;99.90;;;;;;7392819;19;20399;-64
2022/05/19 05:05:16;;;;;;;60.20;41.15;;;12.90;99.90;;;;;;7395174;19;20018;-64
2022/05/19 05:07:44;;;;;;;65.15;42.95;;;12.90;99.90;;;;;;7400198;19;20018;-64
2022/05/19 05:10:16;;;;;;;59.60;41.35;;;12.90;99.90;;;;;;7399188;19;20018;-63
2022/05/19 05:12:46;;;;;;;59.83;41.28;;;13.00;99.90;;;;;;7397624;19;20018;-64
2022/05/19 05:15:15;;;;;;;60.90;42.00;;;12.90;99.90;;;;;;7401795;19;20089;-64
2022/05/19 05:17:44;;;;;;;59.50;41.95;;;13.10;99.90;;;;;;7398836;19;20013;-64
2022/05/19 05:20:14;;;;;;;62.28;41.63;;;13.30;99.90;;;;;;7400587;19;20031;-64
2022/05/19 05:22:43;;;;;;;62.70;42.83;;;13.40;99.90;;;;;;7400357;19;20022;-64
2022/05/19 05:25:17;;;;;;;61.38;42.80;;;13.10;99.90;;;;;;7397642;19;20052;-65
2022/05/19 05:27:46;;;;;;;60.08;42.45;;;13.40;99.90;;;;;;7400156;19;20387;-64
2022/05/19 05:30:16;;;;;;;59.40;42.00;;;13.20;99.90;;;;;;7401312;19;20011;-64
2022/05/19 05:32:45;;;;;;;61.47;42.53;;;13.30;99.90;;;;;;7398238;19;20027;-64
2022/05/19 05:35:14;;;;;;;65.10;43.33;;;13.30;99.90;;;;;;7401052;19;20018;-64
2022/05/19 05:37:43;;;;;;;63.83;44.47;;;13.50;99.90;;;;;;7400559;19;20021;-66
2022/05/19 05:40:13;;;;;;;61.13;43.10;;;13.50;99.90;;;;;;7402146;19;20747;-64
2022/05/19 05:42:45;;;;;;;61.40;44.40;;;13.40;99.90;;;;;;7397395;19;20018;-64
2022/05/19 05:45:14;;;;;;;65.57;46.30;;;13.30;99.90;;;;;;7398374;19;20018;-64
2022/05/19 05:47:43;;;;;;;67.43;45.13;;;13.30;99.90;;;;;;6934882;19;3009220;-65
2022/05/19 05:51:33;;;;;;;62.25;44.08;;;15.90;99.90;;;;;;7312744;19;20889;-65
2022/05/19 05:56:36;;;;;;;65.80;44.92;;;16.90;99.90;;;;;;7428289;19;20369;-65
2022/05/19 05:59:06;;;;;;;62.63;41.60;;;17.00;99.90;;;;;;7427778;19;20026;-65
2022/05/19 06:01:35;;;;;;;57.90;42.05;;;16.80;99.90;;;;;;7426130;19;20090;-65
2022/05/19 06:04:04;;;;;;;54.80;38.92;;;16.50;99.90;;;;;;7431892;19;20068;-65
2022/05/19 06:06:33;;;;;;;52.97;37.38;;;16.90;99.90;;;;;;7430949;19;20023;-66
2022/05/19 06:09:02;;;;;;;54.45;37.05;;;17.00;99.90;;;;;;7414270;19;20434;-65
2022/05/19 06:11:31;;;;;;;48.30;35.80;;;16.90;99.90;;;;;;7335956;19;20014;-65
2022/05/19 06:14:04;;;;;;;48.90;34.92;;;16.90;99.90;;;;;;7425432;19;20034;-66
2022/05/19 06:16:33;;;;;;;49.60;35.05;;;17.00;99.90;;;;;;7422728;19;20014;-65
2022/05/19 06:19:02;;;;;;;43.08;31.95;;;17.30;99.90;;;;;;7285875;19;20082;-65
2022/05/19 06:21:34;;;;;;;50.03;32.35;;;17.20;99.90;;;;;;7428918;19;20027;-63
2022/05/19 06:24:03;;;;;;;43.47;30.55;;;17.50;99.90;;;;;;7428846;19;20011;-63
2022/05/19 06:26:33;;;;;;;43.00;30.73;;;17.60;99.90;;;;;;7423921;19;20037;-63
2022/05/19 06:29:04;;;;;;;42.40;29.80;;;17.60;99.90;;;;;;7427811;19;20017;-63
2022/05/19 06:31:34;;;;;;;39.88;28.20;;;17.80;99.90;;;;;;7430905;19;20021;-63
2022/05/19 06:34:04;;;;;;;38.28;27.38;;;17.80;99.90;;;;;;7430463;19;20017;-63
2022/05/19 06:36:32;;;;;;;34.88;25.83;;;17.90;99.90;;;;;;7424515;19;20093;-63
2022/05/19 06:39:01;;;;;;;35.72;24.98;;;17.90;99.90;;;;;;7430881;19;20018;-63
2022/05/19 06:44:17;;;;;;;35.17;24.45;;;17.90;99.90;;;;;;7431396;19;20010;-63
2022/05/19 06:46:46;;;;;;;32.08;21.90;;;18.10;99.90;;;;;;7426268;19;20377;-63
2022/05/19 06:49:17;;;;;;;35.92;23.52;;;18.10;99.90;;;;;;7427934;19;20014;-62
2022/05/19 06:51:46;;;;;;;31.15;22.85;;;18.10;99.90;;;;;;7430002;19;20085;-63
2022/05/19 06:54:15;;;;;;;32.05;22.17;;;18.30;99.90;;;;;;7427278;19;20007;-63
2022/05/19 06:56:44;;;;;;;29.88;21.73;;;18.00;99.90;;;;;;7425752;19;20031;-63
2022/05/19 06:59:18;;;;;;;29.75;22.10;;;18.20;99.90;;;;;;7427441;19;20014;-62
2022/05/19 07:01:48;;;;;;;36.45;23.67;;;18.20;99.90;;;;;;7428858;19;20481;-63
2022/05/19 07:04:19;;;;;;;31.80;22.23;;;18.40;99.90;;;;;;7431045;19;20040;-63
2022/05/19 07:06:48;;;;;;;31.23;22.52;;;18.50;99.90;;;;;;7411533;19;20391;-63
2022/05/19 07:09:17;;;;;;;31.88;22.48;;;18.60;99.90;;;;;;7398610;19;20010;-63
2022/05/19 07:11:46;;;;;;;31.85;21.92;;;18.60;99.90;;;;;;7399883;19;20045;-63
2022/05/19 07:14:18;;;;;;;29.65;22.00;;;18.90;99.90;;;;;;7400374;19;20015;-63
2022/05/19 07:16:48;;;;;;;30.00;21.58;;;18.60;99.90;;;;;;7396367;19;20015;-64
2022/05/19 07:21:59;;;;;;;26.30;19.00;;;18.90;99.90;;;;;;7402042;19;20324;-64
2022/05/19 07:24:28;;;;;;;26.65;19.02;;;19.00;99.90;;;;;;7397911;19;20084;-64
2022/05/19 07:26:58;;;;;;;27.65;18.42;;;19.20;99.90;;;;;;7396440;19;20407;-65
2022/05/19 07:29:30;;;;;;;24.88;18.13;;;19.00;99.90;;;;;;7397562;19;20390;-64
2022/05/19 07:32:01;;;;;;;26.40;19.35;;;19.40;99.90;;;;;;7400578;19;20078;-65
2022/05/19 07:34:31;;;;;;;22.90;18.38;;;19.20;99.90;;;;;;7396943;19;20014;-64
2022/05/19 07:37:01;;;;;;;28.10;19.38;;;19.20;99.90;;;;;;7397080;19;20037;-65
2022/05/19 07:39:30;;;;;;;26.60;17.65;;;19.40;99.90;;;;;;7397670;19;20038;-63
2022/05/19 07:41:59;;;;;;;25.55;19.63;;;19.20;99.90;;;;;;7400911;19;20031;-64
2022/05/19 07:44:32;;;;;;;24.25;18.67;;;19.30;99.90;;;;;;7397540;19;20390;-63
2022/05/19 07:47:02;;;;;;;26.25;19.25;;;19.30;99.90;;;;;;7399537;19;20014;-64
2022/05/19 07:49:31;;;;;;;28.77;18.50;;;19.40;99.90;;;;;;7397282;19;20386;-64
2022/05/19 07:52:00;;;;;;;24.45;17.80;;;19.50;99.90;;;;;;7400657;19;20035;-64
2022/05/19 07:54:31;;;;;;;24.35;17.20;;;19.50;99.90;;;;;;7396268;19;20070;-63
2022/05/19 07:57:00;;;;;;;22.23;15.82;;;19.50;99.90;;;;;;7394850;19;20014;-64
2022/05/19 07:59:32;;;;;;;28.30;18.75;;;19.50;99.90;;;;;;7396620;19;20482;-64
2022/05/19 08:02:01;;;;;;;24.38;19.05;;;19.60;99.90;;;;;;7397239;19;20034;-64
2022/05/19 08:04:31;;;;;;;22.75;17.52;;;19.60;99.90;;;;;;7398633;19;20021;-64
2022/05/19 08:07:01;;;;;;;24.48;16.77;;;19.80;99.90;;;;;;7397148;19;20022;-66
2022/05/19 08:15:34;;;;;;;22.55;16.92;;;19.70;99.90;;;;;;7399580;19;20100;-64
2022/05/19 08:17:53;;;;;;;18.88;14.55;;;19.50;99.90;;;;;;7394926;19;20407;-65
2022/05/19 08:20:22;;;;;;;19.83;15.25;;;19.40;99.90;;;;;;7398647;19;20043;-64
2022/05/19 08:22:51;;;;;;;19.23;15.50;;;19.50;99.90;;;;;;7398747;19;20022;-64
2022/05/19 08:25:24;;;;;;;21.40;16.00;;;19.40;99.90;;;;;;7395997;19;20022;-64
2022/05/19 08:27:53;;;;;;;22.55;16.80;;;19.30;99.90;;;;;;7396057;19;20022;-65
2022/05/19 08:30:25;;;;;;;25.42;17.98;;;19.20;99.90;;;;;;7397872;19;20014;-64
2022/05/19 08:32:55;;;;;;;29.10;19.40;;;18.90;99.90;;;;;;7398092;19;20018;-64
2022/05/19 08:35:25;;;;;;;27.77;19.80;;;18.90;99.90;;;;;;7395244;19;20015;-64
2022/05/19 08:37:54;;;;;;;24.25;19.48;;;19.20;99.90;;;;;;7397758;19;20026;-64
2022/05/19 08:40:23;;;;;;;26.25;18.67;;;18.90;99.90;;;;;;7396674;19;20010;-64
2022/05/19 08:42:59;;;;;;;31.48;21.10;;;18.80;99.90;;;;;;7396782;19;20477;-64
2022/05/19 08:45:33;;;;;;;32.70;21.08;;;18.90;99.90;;;;;;7395652;19;20017;-64
2022/05/19 08:48:07;;;;;;;28.40;20.95;;;19.00;99.90;;;;;;7399192;19;20018;-65
2022/05/19 08:50:46;;;;;;;39.80;26.00;;;19.00;99.90;;;;;;7397375;19;20084;-65
2022/05/19 08:53:16;;;;;;;39.92;26.92;;;19.00;99.90;;;;;;7399661;19;20019;-64
2022/05/19 08:55:50;;;;;;;37.00;25.77;;;18.80;99.90;;;;;;7395218;19;20354;-63
2022/05/19 08:58:46;;;;;;;40.35;27.58;;;18.90;99.90;;;;;;7396977;19;20011;-64
2022/05/19 09:01:21;;;;;;;;;;;18.80;99.90;;;;;;7397128;19;20019;-64
2022/05/19 09:04:00;;;;;;;39.45;27.27;;;18.90;99.90;;;;;;7400448;19;19939;-65
2022/05/19 09:09:41;;;;;;;36.20;26.95;;;18.80;99.90;;;;;;7395934;19;20035;-64
2022/05/19 09:12:16;;;;;;;37.20;28.00;;;18.90;99.90;;;;;;7394622;19;20022;-64
2022/05/19 09:14:44;;;;;;;43.80;28.05;;;18.80;99.90;;;;;;7397944;19;20024;-64
2022/05/19 09:17:16;;;;;;;41.45;29.35;;;18.90;99.90;;;;;;7394966;19;20017;-63
2022/05/19 09:19:49;;;;;;;37.22;28.27;;;19.00;99.90;;;;;;7396672;19;20018;-63
2022/05/19 09:22:21;;;;;;;35.85;28.00;;;19.00;99.90;;;;;;7395303;19;20035;-64
2022/05/19 09:24:53;;;;;;;35.95;26.20;;;19.10;99.90;;;;;;7395777;19;20035;-65
2022/05/19 09:27:22;;;;;;;38.55;29.00;;;19.10;99.90;;;;;;7396320;19;20018;-64
2022/05/19 09:29:53;;;;;;;38.28;28.30;;;19.30;99.90;;;;;;7394614;19;20018;-64
2022/05/19 09:32:29;;;;;;;41.03;28.55;;;19.20;99.90;;;;;;7394034;19;20035;-64
2022/05/19 09:35:07;;;;;;;36.67;27.45;;;19.30;99.90;;;;;;7396989;19;20022;-64
2022/05/19 09:37:42;;;;;;;42.33;30.70;;;19.30;99.90;;;;;;7394579;19;20035;-65
2022/05/19 09:40:22;;;;;;;39.85;29.77;;;19.50;99.90;;;;;;7394361;19;20031;-64
2022/05/19 09:42:55;;;;;;;39.10;28.45;;;19.40;99.90;;;;;;7395170;19;20118;-64
2022/05/19 09:45:26;;;;;;;36.80;28.63;;;19.60;99.90;;;;;;7390519;19;20018;-64
2022/05/19 09:48:02;;;;;;;38.78;28.20;;;19.90;99.90;;;;;;7396640;19;20036;-63
2022/05/19 09:50:33;;;;;;;38.67;26.70;;;19.80;99.90;;;;;;7394113;19;20493;-63
2022/05/19 09:53:04;;;;;;;38.47;26.92;;;20.00;99.90;;;;;;7393902;19;20017;-62
2022/05/19 09:55:34;;;;;;;38.88;28.35;;;19.90;99.90;;;;;;7393271;19;20049;-63
2022/05/19 09:58:05;;;;;;;35.65;26.05;;;20.00;99.90;;;;;;7391369;19;20080;-63
2022/05/19 10:00:39;;;;;;;34.13;26.75;;;20.00;99.90;;;;;;7395281;19;20025;-63
2022/05/19 10:03:20;;;;;;;29.50;21.85;;;20.10;99.90;;;;;;7393209;19;20054;-63
2022/05/19 10:05:51;;;;;;;24.75;18.77;;;20.30;99.90;;;;;;7395035;19;20029;-63
2022/05/19 10:08:23;;;;;;;26.08;18.52;;;20.40;99.90;;;;;;7397906;19;20025;-64
2022/05/19 10:11:02;;;;;;;29.55;19.92;;;20.40;99.90;;;;;;7395624;19;20018;-63
2022/05/19 10:13:39;;;;;;;25.88;19.88;;;20.70;99.90;;;;;;7392247;19;20021;-63
2022/05/19 10:16:17;;;;;;;25.30;17.05;;;20.70;99.90;;;;;;7393120;19;20039;-62
2022/05/19 10:19:01;;;;;;;24.52;18.17;;;21.00;99.90;;;;;;7394876;19;20015;-64
2022/05/19 10:21:57;;;;;;;24.40;17.92;;;20.90;99.90;;;;;;7388461;19;20014;-63
2022/05/19 10:24:50;;;;;;;21.00;17.15;;;21.10;99.90;;;;;;7388315;19;20491;-63
2022/05/19 10:31:07;;;;;;;20.30;15.00;;;21.30;99.90;;;;;;7384688;19;20015;-63
2022/05/19 10:34:05;;;;;;;23.08;17.17;;;21.20;99.90;;;;;;7298702;19;20010;-64
2022/05/19 11:17:57;;;;;;;17.00;13.93;;;22.00;99.90;;;;;;7386846;19;20009;-63
2022/05/19 11:20:30;;;;;;;19.63;16.42;;;22.40;99.90;;;;;;7398795;19;20082;-64
2022/05/19 11:23:06;;;;;;;21.15;16.50;;;22.40;99.90;;;;;;7397273;19;20070;-64
2022/05/19 11:28:25;;;;;;;22.30;18.02;;;22.90;99.90;;;;;;7398193;19;19922;-64
2022/05/19 11:30:59;;;;;;;72.50;24.75;;;23.00;99.90;;;;;;7399380;19;20014;-64
2022/05/19 11:33:39;;;;;;;36.72;19.73;;;23.20;99.90;;;;;;7399395;19;20021;-64
2022/05/19 11:36:16;;;;;;;131.00;33.63;;;23.60;99.90;;;;;;7391582;19;20027;-61
2022/05/19 11:38:54;;;;;;;24.77;17.83;;;23.50;99.90;;;;;;7393004;19;20019;-63
2022/05/19 11:41:27;;;;;;;24.67;19.60;;;23.80;99.90;;;;;;7394723;19;20035;-63
2022/05/19 11:44:01;;;;;;;25.10;19.52;;;23.80;99.90;;;;;;7397249;19;20521;-63
2022/05/19 11:46:36;;;;;;;25.83;20.15;;;23.80;99.90;;;;;;7397199;19;20010;-63
2022/05/19 11:57:33;;;;;;;25.20;20.02;;;24.00;99.90;;;;;;7394887;19;20024;-63
2022/05/19 12:00:05;;;;;;;22.70;17.65;;;23.90;99.90;;;;;;7398228;19;20015;-64
2022/05/19 12:02:41;;;;;;;21.50;17.63;;;23.70;99.90;;;;;;7399847;19;20015;-63
2022/05/19 12:05:18;;;;;;;21.13;16.50;;;23.80;99.90;;;;;;7396001;19;20014;-64
2022/05/19 12:07:53;;;;;;;23.55;17.63;;;23.70;99.90;;;;;;7396247;19;20023;-63
2022/05/19 12:10:27;;;;;;;21.63;16.70;;;23.80;99.90;;;;;;7397486;19;20654;-64
2022/05/19 12:13:03;;;;;;;23.15;16.55;;;23.80;99.90;;;;;;7400983;19;20031;-63
2022/05/19 12:15:39;;;;;;;19.92;15.85;;;23.90;99.90;;;;;;7395577;19;20021;-64
2022/05/19 12:18:15;;;;;;;18.73;14.82;;;24.20;99.90;;;;;;7392905;19;20014;-64
2022/05/19 12:21:33;;;;;;;18.17;14.18;;;24.30;99.90;;;;;;7396554;19;20015;-64
2022/05/19 12:24:09;;;;;;;15.93;13.95;;;24.30;99.30;;;;;;7395460;19;20034;-63
2022/05/19 12:26:53;;;;;;;14.82;12.30;;;24.40;99.80;;;;;;7396588;19;20492;-63
2022/05/19 12:29:43;;;;;;;15.43;12.75;;;24.10;98.40;;;;;;7395567;19;20014;-63
2022/05/19 12:32:17;;;;;;;17.45;13.93;;;24.40;98.90;;;;;;7400233;19;20017;-64
2022/05/19 12:34:49;;;;;;;16.85;12.85;;;24.30;98.50;;;;;;7395885;19;20018;-64
2022/05/19 12:37:42;;;;;;;15.32;11.70;;;24.20;98.50;;;;;;7396682;19;20060;-64
2022/05/19 12:40:30;;;;;;;15.57;9.95;;;24.20;98.30;;;;;;7397463;19;20011;-64
2022/05/19 12:43:31;;;;;;;14.45;10.15;;;24.20;98.30;;;;;;7392585;19;20025;-64
2022/05/19 12:46:02;;;;;;;13.32;10.27;;;24.40;98.20;;;;;;7394251;19;20130;-63
2022/05/19 12:48:53;;;;;;;15.02;9.63;;;24.20;98.50;;;;;;7395107;19;20017;-64
2022/05/19 12:51:47;;;;;;;14.93;9.85;;;24.30;99.10;;;;;;7396281;19;20021;-64
2022/05/19 12:54:20;;;;;;;14.73;9.45;;;24.10;98.40;;;;;;7396086;19;20521;-63
2022/05/19 12:56:59;;;;;;;12.43;9.45;;;24.00;98.10;;;;;;7393497;19;20018;-64
2022/05/19 12:59:41;;;;;;;12.63;8.80;;;23.90;98.20;;;;;;7394288;19;20010;-63
2022/05/19 13:02:14;;;;;;;10.45;8.48;;;23.70;97.80;;;;;;7397466;19;20489;-64
2022/05/19 13:04:50;;;;;;;9.73;8.20;;;23.90;97.80;;;;;;7393272;19;20038;-64
2022/05/19 13:07:25;;;;;;;11.40;7.95;;;23.70;98.40;;;;;;7396760;19;20018;-63
2022/05/19 13:10:08;;;;;;;8.73;7.25;;;23.60;98.40;;;;;;7398276;19;20054;-63
2022/05/19 13:12:48;;;;;;;13.88;7.38;;;23.20;98.20;;;;;;7398801;19;20241;-64
2022/05/19 13:15:26;;;;;;;8.02;6.70;;;23.20;98.50;;;;;;7393726;19;20024;-63
2022/05/19 13:17:56;;;;;;;11.35;6.88;;;23.10;98.60;;;;;;7394509;19;20022;-63
2022/05/19 13:20:29;;;;;;;9.80;6.43;;;23.20;98.80;;;;;;7393065;19;20031;-63
2022/05/19 13:23:03;;;;;;;13.73;6.47;;;23.10;98.90;;;;;;7394314;19;20085;-64
2022/05/19 13:25:37;;;;;;;10.13;5.93;;;23.10;98.90;;;;;;7394211;19;20014;-63
2022/05/19 13:30:51;;;;;;;13.05;9.15;;;22.90;99.70;;;;;;7394783;19;20023;-63
2022/05/19 13:33:23;;;;;;;8.65;6.60;;;22.80;99.90;;;;;;7396036;19;20018;-64
2022/05/19 13:36:01;;;;;;;11.77;7.82;;;22.80;99.90;;;;;;7393822;19;20369;-63
2022/05/19 13:38:31;;;;;;;14.00;9.50;;;22.50;99.90;;;;;;7392609;19;20018;-63
2022/05/19 13:41:03;;;;;;;11.77;9.25;;;22.40;99.90;;;;;;7394096;19;20021;-64
2022/05/19 13:43:35;;;;;;;17.80;9.95;;;22.40;99.90;;;;;;7392120;19;20017;-63
2022/05/19 13:46:09;;;;;;;33.72;10.93;;;22.10;99.90;;;;;;7393851;19;20086;-63
2022/05/19 13:48:45;;;;;;;16.42;12.23;;;22.00;99.90;;;;;;7391707;19;20070;-63
2022/05/19 13:51:22;;;;;;;38.33;15.30;;;21.80;99.90;;;;;;7393824;19;20351;-62
2022/05/19 13:53:55;;;;;;;23.30;12.82;;;21.40;99.90;;;;;;7393816;19;20014;-62
2022/05/19 13:56:36;;;;;;;17.27;13.63;;;20.80;99.90;;;;;;7393823;19;20019;-62
2022/05/19 13:59:06;;;;;;;19.80;12.52;;;20.30;99.90;;;;;;7392054;19;20014;-62
2022/05/19 14:01:38;;;;;;;21.13;12.25;;;19.70;99.90;;;;;;7395689;19;20518;-62
2022/05/19 14:04:11;;;;;;;23.92;12.68;;;19.10;99.90;;;;;;7390890;19;20021;-61
2022/05/19 14:06:41;;;;;;;12.50;8.00;;;18.80;99.90;;;;;;7395267;19;20011;-61
2022/05/19 14:09:23;;;;;;;12.68;5.70;;;18.70;99.90;;;;;;7394305;19;20015;-62
2022/05/19 14:12:21;;;;;;;8.20;5.30;;;18.10;99.90;;;;;;7392525;19;20042;-62
2022/05/19 14:14:56;;;;;;;7.85;4.28;;;17.70;99.90;;;;;;7392618;19;20010;-64
2022/05/19 14:17:27;;;;;;;8.30;5.18;;;17.60;99.90;;;;;;7394618;19;20022;-64